sensor_id;sensor_type;location;lat;lon;timestamp;pressure;altitude;pressure_sealevel;temperature;humidity
9460;BME280;4768;42.664;23.240;2023-03-19T00:00:10;-9403.94;;;-0.21;100.00
9460;BME280;4768;42.664;23.240;2023-03-19T00:02:39;-9404.06;;;-0.20;100.00
9460;BME280;4768;42.664;23.240;2023-03-19T00:05:07;-9405.63;;;-0.15;100.00
9460;BME280;4768;42.664;23.240;2023-03-19T00:07:34;-9407.16;;;-0.09;100.00
9460;BME280;4768;42.664;23.240;2023-03-19T00:10:00;-9406.03;;;-0.13;100.00
9460;BME280;4768;42.664;23.240;2023-03-19T00:12:27;-9409.28;;;-0.02;100.00
9460;BME280;4768;42.664;23.240;2023-03-19T00:14:54;-9409.13;;;-0.02;100.00
9460;BME280;4768;42.664;23.240;2023-03-19T00:17:21;-9412.81;;;0.10;100.00
9460;BME280;4768;42.664;23.240;2023-03-19T00:19:49;-9412.22;;;0.08;100.00
9460;BME280;4768;42.664;23.240;2023-03-19T00:22:16;-9411.69;;;0.06;100.00
9460;BME280;4768;42.664;23.240;2023-03-19T00:24:42;-9410.81;;;0.03;100.00
9460;BME280;4768;42.664;23.240;2023-03-19T00:27:09;-9409.00;;;-0.03;100.00
9460;BME280;4768;42.664;23.240;2023-03-19T00:29:37;-9407.59;;;-0.08;100.00
9460;BME280;4768;42.664;23.240;2023-03-19T00:32:04;-9405.34;;;-0.16;100.00
9460;BME280;4768;42.664;23.240;2023-03-19T00:34:31;-9405.06;;;-0.17;100.00
9460;BME280;4768;42.664;23.240;2023-03-19T00:36:59;-9402.53;;;-0.26;100.00
9460;BME280;4768;42.664;23.240;2023-03-19T00:39:26;-9400.84;;;-0.32;100.00
9460;BME280;4768;42.664;23.240;2023-03-19T00:41:53;-9401.69;;;-0.29;100.00
9460;BME280;4768;42.664;23.240;2023-03-19T00:44:20;-9403.38;;;-0.23;100.00
9460;BME280;4768;42.664;23.240;2023-03-19T00:46:47;-9403.22;;;-0.23;100.00
9460;BME280;4768;42.664;23.240;2023-03-19T00:49:14;-9402.53;;;-0.26;100.00
9460;BME280;4768;42.664;23.240;2023-03-19T00:51:40;-9404.34;;;-0.19;100.00
9460;BME280;4768;42.664;23.240;2023-03-19T00:54:10;-9406.47;;;-0.12;100.00
9460;BME280;4768;42.664;23.240;2023-03-19T00:56:37;-9409.00;;;-0.03;100.00
9460;BME280;4768;42.664;23.240;2023-03-19T00:59:05;-9410.13;;;0.01;100.00
9460;BME280;4768;42.664;23.240;2023-03-19T01:01:32;-9409.41;;;-0.02;100.00
9460;BME280;4768;42.664;23.240;2023-03-19T01:03:59;-9410.97;;;0.04;100.00
9460;BME280;4768;42.664;23.240;2023-03-19T01:06:25;-9412.66;;;0.10;100.00
9460;BME280;4768;42.664;23.240;2023-03-19T01:08:52;-9412.66;;;0.10;100.00
9460;BME280;4768;42.664;23.240;2023-03-19T01:11:20;-9412.53;;;0.09;100.00
9460;BME280;4768;42.664;23.240;2023-03-19T01:13:47;-9410.81;;;0.03;100.00
9460;BME280;4768;42.664;23.240;2023-03-19T01:16:14;-9409.00;;;-0.03;100.00
9460;BME280;4768;42.664;23.240;2023-03-19T01:18:41;-9408.44;;;-0.05;100.00
9460;BME280;4768;42.664;23.240;2023-03-19T01:21:08;-9411.53;;;0.06;100.00
9460;BME280;4768;42.664;23.240;2023-03-19T01:23:35;-9413.66;;;0.13;100.00
9460;BME280;4768;42.664;23.240;2023-03-19T01:26:01;-9417.03;;;0.25;100.00
9460;BME280;4768;42.664;23.240;2023-03-19T01:28:30;-9422.53;;;0.45;100.00
9460;BME280;4768;42.664;23.240;2023-03-19T01:30:58;-9420.97;;;0.39;100.00
9460;BME280;4768;42.664;23.240;2023-03-19T01:33:26;-9421.94;;;0.43;100.00
9460;BME280;4768;42.664;23.240;2023-03-19T01:35:53;-9418.72;;;0.31;100.00
9460;BME280;4768;42.664;23.240;2023-03-19T01:38:22;-9413.94;;;0.14;100.00
9460;BME280;4768;42.664;23.240;2023-03-19T01:40:49;-9407.59;;;-0.08;100.00
9460;BME280;4768;42.664;23.240;2023-03-19T01:43:18;-9406.31;;;-0.12;100.00
9460;BME280;4768;42.664;23.240;2023-03-19T01:45:49;-9405.06;;;-0.17;100.00
9460;BME280;4768;42.664;23.240;2023-03-19T01:48:24;-9406.75;;;-0.11;100.00
9460;BME280;4768;42.664;23.240;2023-03-19T01:50:53;-9411.38;;;0.05;100.00
9460;BME280;4768;42.664;23.240;2023-03-19T01:53:23;-9420.13;;;0.36;100.00
9460;BME280;4768;42.664;23.240;2023-03-19T01:55:52;-9422.38;;;0.44;100.00
9460;BME280;4768;42.664;23.240;2023-03-19T01:58:21;-9418.28;;;0.30;100.00
9460;BME280;4768;42.664;23.240;2023-03-19T02:00:49;-9419.69;;;0.35;100.00
9460;BME280;4768;42.664;23.240;2023-03-19T02:03:16;-9416.03;;;0.22;100.00
9460;BME280;4768;42.664;23.240;2023-03-19T02:05:44;-9411.53;;;0.06;100.00
9460;BME280;4768;42.664;23.240;2023-03-19T02:08:15;-9407.31;;;-0.09;100.00
9460;BME280;4768;42.664;23.240;2023-03-19T02:10:43;-9404.06;;;-0.20;100.00
9460;BME280;4768;42.664;23.240;2023-03-19T02:13:11;-9405.19;;;-0.16;100.00
9460;BME280;4768;42.664;23.240;2023-03-19T02:15:38;-9406.03;;;-0.13;100.00
9460;BME280;4768;42.664;23.240;2023-03-19T02:18:07;-9405.91;;;-0.14;100.00
9460;BME280;4768;42.664;23.240;2023-03-19T02:20:41;-9402.53;;;-0.26;100.00
9460;BME280;4768;42.664;23.240;2023-03-19T02:23:13;-9401.13;;;-0.31;100.00
9460;BME280;4768;42.664;23.240;2023-03-19T02:25:53;-9400.41;;;-0.33;100.00
9460;BME280;4768;42.664;23.240;2023-03-19T02:28:22;-9398.00;;;-0.42;100.00
9460;BME280;4768;42.664;23.240;2023-03-19T02:30:50;-9399.00;;;-0.38;100.00
9460;BME280;4768;42.664;23.240;2023-03-19T02:33:18;-9398.72;;;-0.39;100.00
9460;BME280;4768;42.664;23.240;2023-03-19T02:35:48;-9399.69;;;-0.36;100.00
9460;BME280;4768;42.664;23.240;2023-03-19T02:38:15;-9399.00;;;-0.38;100.00
9460;BME280;4768;42.664;23.240;2023-03-19T02:40:46;-9396.59;;;-0.47;100.00
9460;BME280;4768;42.664;23.240;2023-03-19T02:43:16;-9398.28;;;-0.41;100.00
9460;BME280;4768;42.664;23.240;2023-03-19T02:45:43;-9397.44;;;-0.44;100.00
9460;BME280;4768;42.664;23.240;2023-03-19T02:48:09;-9399.13;;;-0.38;100.00
9460;BME280;4768;42.664;23.240;2023-03-19T02:50:36;-9399.13;;;-0.38;100.00
9460;BME280;4768;42.664;23.240;2023-03-19T02:53:03;-9400.69;;;-0.32;100.00
9460;BME280;4768;42.664;23.240;2023-03-19T02:55:30;-9398.72;;;-0.39;100.00
9460;BME280;4768;42.664;23.240;2023-03-19T02:57:56;-9396.59;;;-0.47;100.00
9460;BME280;4768;42.664;23.240;2023-03-19T03:00:24;-9397.16;;;-0.45;100.00
9460;BME280;4768;42.664;23.240;2023-03-19T03:02:52;-9396.88;;;-0.46;100.00
9460;BME280;4768;42.664;23.240;2023-03-19T03:05:20;-9395.47;;;-0.50;100.00
9460;BME280;4768;42.664;23.240;2023-03-19T03:07:47;-9392.66;;;-0.60;100.00
9460;BME280;4768;42.664;23.240;2023-03-19T03:10:14;-9389.56;;;-0.71;100.00
9460;BME280;4768;42.664;23.240;2023-03-19T03:12:41;-9387.47;;;-0.79;100.00
9460;BME280;4768;42.664;23.240;2023-03-19T03:15:08;-9389.56;;;-0.71;100.00
9460;BME280;4768;42.664;23.240;2023-03-19T03:17:37;-9388.88;;;-0.74;100.00
9460;BME280;4768;42.664;23.240;2023-03-19T03:20:06;-9387.31;;;-0.79;100.00
9460;BME280;4768;42.664;23.240;2023-03-19T03:22:33;-9383.09;;;-0.94;100.00
9460;BME280;4768;42.664;23.240;2023-03-19T03:25:00;-9384.91;;;-0.88;100.00
9460;BME280;4768;42.664;23.240;2023-03-19T03:27:27;-9385.34;;;-0.86;100.00
9460;BME280;4768;42.664;23.240;2023-03-19T03:29:54;-9384.91;;;-0.88;100.00
9460;BME280;4768;42.664;23.240;2023-03-19T03:32:21;-9387.59;;;-0.78;100.00
9460;BME280;4768;42.664;23.240;2023-03-19T03:34:49;-9388.16;;;-0.76;100.00
9460;BME280;4768;42.664;23.240;2023-03-19T03:37:15;-9382.94;;;-0.95;100.00
9460;BME280;4768;42.664;23.240;2023-03-19T03:39:43;-9379.28;;;-1.07;100.00
9460;BME280;4768;42.664;23.240;2023-03-19T03:42:10;-9378.03;;;-1.12;100.00
9460;BME280;4768;42.664;23.240;2023-03-19T03:44:37;-9378.03;;;-1.12;100.00
9460;BME280;4768;42.664;23.240;2023-03-19T03:47:04;-9380.41;;;-1.03;100.00
9460;BME280;4768;42.664;23.240;2023-03-19T03:49:31;-9378.72;;;-1.09;100.00
9460;BME280;4768;42.664;23.240;2023-03-19T03:51:59;-9378.72;;;-1.09;100.00
9460;BME280;4768;42.664;23.240;2023-03-19T03:54:26;-9377.47;;;-1.14;100.00
9460;BME280;4768;42.664;23.240;2023-03-19T03:56:52;-9380.97;;;-1.01;100.00
9460;BME280;4768;42.664;23.240;2023-03-19T03:59:19;-9376.91;;;-1.16;100.00
9460;BME280;4768;42.664;23.240;2023-03-19T04:01:46;-9380.00;;;-1.05;100.00
9460;BME280;4768;42.664;23.240;2023-03-19T04:04:12;-9378.59;;;-1.10;100.00
9460;BME280;4768;42.664;23.240;2023-03-19T04:06:39;-9377.59;;;-1.13;100.00
9460;BME280;4768;42.664;23.240;2023-03-19T04:09:07;-9375.78;;;-1.20;100.00
9460;BME280;4768;42.664;23.240;2023-03-19T04:11:34;-9371.84;;;-1.34;100.00
9460;BME280;4768;42.664;23.240;2023-03-19T04:14:01;-9371.69;;;-1.34;100.00
9460;BME280;4768;42.664;23.240;2023-03-19T04:16:29;-9371.13;;;-1.36;100.00
9460;BME280;4768;42.664;23.240;2023-03-19T04:18:56;-9371.69;;;-1.34;100.00
9460;BME280;4768;42.664;23.240;2023-03-19T04:21:23;-9370.28;;;-1.39;100.00
9460;BME280;4768;42.664;23.240;2023-03-19T04:23:50;-9370.84;;;-1.37;100.00
9460;BME280;4768;42.664;23.240;2023-03-19T04:26:18;-9370.44;;;-1.39;100.00
9460;BME280;4768;42.664;23.240;2023-03-19T04:28:45;-9370.28;;;-1.39;100.00
9460;BME280;4768;42.664;23.240;2023-03-19T04:31:12;-9368.47;;;-1.45;100.00
9460;BME280;4768;42.664;23.240;2023-03-19T04:33:39;-9366.22;;;-1.53;100.00
9460;BME280;4768;42.664;23.240;2023-03-19T04:36:07;-9365.09;;;-1.57;100.00
9460;BME280;4768;42.664;23.240;2023-03-19T04:38:33;-9365.50;;;-1.56;100.00
9460;BME280;4768;42.664;23.240;2023-03-19T04:41:00;-9364.66;;;-1.59;100.00
9460;BME280;4768;42.664;23.240;2023-03-19T04:43:29;-9367.34;;;-1.49;100.00
9460;BME280;4768;42.664;23.240;2023-03-19T04:45:56;-9368.88;;;-1.44;100.00
9460;BME280;4768;42.664;23.240;2023-03-19T04:48:23;-9373.81;;;-1.27;100.00
9460;BME280;4768;42.664;23.240;2023-03-19T04:50:51;-9376.47;;;-1.17;100.00
9460;BME280;4768;42.664;23.240;2023-03-19T04:53:21;-9384.63;;;-0.89;100.00
9460;BME280;4768;42.664;23.240;2023-03-19T04:55:48;-9388.31;;;-0.76;100.00
9460;BME280;4768;42.664;23.240;2023-03-19T04:58:15;-9397.03;;;-0.45;100.00
9460;BME280;4768;42.664;23.240;2023-03-19T05:00:44;-9396.59;;;-0.47;100.00
9460;BME280;4768;42.664;23.240;2023-03-19T05:03:12;-9405.34;;;-0.16;100.00
9460;BME280;4768;42.664;23.240;2023-03-19T05:05:38;-9397.72;;;-0.43;100.00
9460;BME280;4768;42.664;23.240;2023-03-19T05:08:05;-9409.28;;;-0.02;100.00
9460;BME280;4768;42.664;23.240;2023-03-19T05:10:33;-9414.50;;;0.16;100.00
9460;BME280;4768;42.664;23.240;2023-03-19T05:12:59;-9420.25;;;0.37;100.00
9460;BME280;4768;42.664;23.240;2023-03-19T05:15:26;-9422.81;;;0.46;100.00
9460;BME280;4768;42.664;23.240;2023-03-19T05:17:54;-9426.47;;;0.58;100.00
9460;BME280;4768;42.664;23.240;2023-03-19T05:20:21;-9428.16;;;0.64;100.00
9460;BME280;4768;42.664;23.240;2023-03-19T05:22:48;-9429.56;;;0.69;100.00
9460;BME280;4768;42.664;23.240;2023-03-19T05:25:15;-9433.09;;;0.82;100.00
9460;BME280;4768;42.664;23.240;2023-03-19T05:27:41;-9427.88;;;0.63;100.00
9460;BME280;4768;42.664;23.240;2023-03-19T05:30:09;-9428.00;;;0.64;100.00
9460;BME280;4768;42.664;23.240;2023-03-19T05:32:37;-9430.28;;;0.72;100.00
9460;BME280;4768;42.664;23.240;2023-03-19T05:35:07;-9439.00;;;1.02;100.00
9460;BME280;4768;42.664;23.240;2023-03-19T05:37:33;-9449.44;;;1.39;100.00
9460;BME280;4768;42.664;23.240;2023-03-19T05:40:00;-9453.09;;;1.52;100.00
9460;BME280;4768;42.664;23.240;2023-03-19T05:42:27;-9457.63;;;1.68;100.00
9460;BME280;4768;42.664;23.240;2023-03-19T05:44:54;-9467.91;;;2.04;100.00
9460;BME280;4768;42.664;23.240;2023-03-19T05:47:21;-9472.84;;;2.21;100.00
9460;BME280;4768;42.664;23.240;2023-03-19T05:49:47;-9482.88;;;2.56;100.00
9460;BME280;4768;42.664;23.240;2023-03-19T05:52:16;-9480.47;;;2.48;100.00
9460;BME280;4768;42.664;23.240;2023-03-19T05:54:42;-9469.31;;;2.09;100.00
9460;BME280;4768;42.664;23.240;2023-03-19T05:57:13;-9461.28;;;1.81;100.00
9460;BME280;4768;42.664;23.240;2023-03-19T05:59:40;-9458.03;;;1.69;100.00
9460;BME280;4768;42.664;23.240;2023-03-19T06:02:08;-9455.06;;;1.59;100.00
9460;BME280;4768;42.664;23.240;2023-03-19T06:04:35;-9450.56;;;1.43;100.00
9460;BME280;4768;42.664;23.240;2023-03-19T06:07:01;-9459.44;;;1.74;100.00
9460;BME280;4768;42.664;23.240;2023-03-19T06:09:30;-9466.50;;;1.99;100.00
9460;BME280;4768;42.664;23.240;2023-03-19T06:11:56;-9469.59;;;2.10;100.00
9460;BME280;4768;42.664;23.240;2023-03-19T06:14:23;-9495.16;;;2.99;100.00
9460;BME280;4768;42.664;23.240;2023-03-19T06:16:50;-9507.16;;;3.41;100.00
9460;BME280;4768;42.664;23.240;2023-03-19T06:19:17;-9525.22;;;4.05;100.00
9460;BME280;4768;42.664;23.240;2023-03-19T06:21:44;-9543.31;;;4.68;100.00
9460;BME280;4768;42.664;23.240;2023-03-19T06:24:11;-9525.38;;;4.05;100.00
9460;BME280;4768;42.664;23.240;2023-03-19T06:26:39;-9516.75;;;3.75;100.00
9460;BME280;4768;42.664;23.240;2023-03-19T06:29:06;-9519.56;;;3.85;100.00
9460;BME280;4768;42.664;23.240;2023-03-19T06:31:32;-8167.53;;;3.88;100.00
9460;BME280;4768;42.664;23.240;2023-03-19T06:33:59;-2755.38;;;3.72;100.00
9460;BME280;4768;42.664;23.240;2023-03-19T06:36:26;1635.69;;;4.63;100.00
9460;BME280;4768;42.664;23.240;2023-03-19T06:38:54;13521.13;;;3.64;100.00
9460;BME280;4768;42.664;23.240;2023-03-19T06:41:21;4357.72;;;3.42;100.00
9460;BME280;4768;42.664;23.240;2023-03-19T06:43:50;1650.88;;;3.16;100.00
9460;BME280;4768;42.664;23.240;2023-03-19T06:46:17;-4102.72;;;3.44;100.00
9460;BME280;4768;42.664;23.240;2023-03-19T06:48:44;-1061.09;;;3.55;100.00
9460;BME280;4768;42.664;23.240;2023-03-19T06:51:11;-1054.59;;;3.11;100.00
9460;BME280;4768;42.664;23.240;2023-03-19T06:53:37;-4772.09;;;3.13;100.00
9460;BME280;4768;42.664;23.240;2023-03-19T06:56:04;-4771.38;;;3.09;100.00
9460;BME280;4768;42.664;23.240;2023-03-19T06:58:31;-8149.78;;;3.21;100.00
9460;BME280;4768;42.664;23.240;2023-03-19T07:01:01;-8156.97;;;3.48;100.00
9460;BME280;4768;42.664;23.240;2023-03-19T07:03:27;-3768.31;;;3.63;100.00
9460;BME280;4768;42.664;23.240;2023-03-19T07:05:55;1986.06;;;3.49;100.00
9460;BME280;4768;42.664;23.240;2023-03-19T07:08:21;5035.44;;;3.43;100.00
9460;BME280;4768;42.664;23.240;2023-03-19T07:10:52;11822.09;;;3.64;100.00
9460;BME280;4768;42.664;23.240;2023-03-19T07:13:18;16247.19;;;4.06;100.00
9460;BME280;4768;42.664;23.240;2023-03-19T07:15:46;17608.53;;;4.02;100.00
9460;BME280;4768;42.664;23.240;2023-03-19T07:18:14;24765.88;;;3.96;100.00
9460;BME280;4768;42.664;23.240;2023-03-19T07:20:41;37409.63;;;3.83;100.00
9460;BME280;4768;42.664;23.240;2023-03-19T07:23:07;43583.09;;;3.89;100.00
9460;BME280;4768;42.664;23.240;2023-03-19T07:25:34;41888.88;;;4.27;100.00
9460;BME280;4768;42.664;23.240;2023-03-19T07:28:01;53230.50;;;4.25;100.00
9460;BME280;4768;42.664;23.240;2023-03-19T07:30:28;54627.41;;;4.50;100.00
9460;BME280;4768;42.664;23.240;2023-03-19T07:32:54;74317.25;;;4.42;100.00
9460;BME280;4768;42.664;23.240;2023-03-19T07:35:22;73666.69;;;4.81;100.00
9460;BME280;4768;42.664;23.240;2023-03-19T07:37:49;82018.09;;;4.98;100.00
9460;BME280;4768;42.664;23.240;2023-03-19T07:40:16;89384.22;;;5.41;100.00
9460;BME280;4768;42.664;23.240;2023-03-19T07:42:43;105838.16;;;5.59;100.00
9460;BME280;4768;42.664;23.240;2023-03-19T07:45:10;108000.22;;;5.95;100.00
9460;BME280;4768;42.664;23.240;2023-03-19T07:47:37;129709.56;;;5.41;100.00
9460;BME280;4768;42.664;23.240;2023-03-19T07:50:05;125741.13;;;4.95;100.00
9460;BME280;4768;42.664;23.240;2023-03-19T07:52:33;121143.81;;;4.82;100.00
9460;BME280;4768;42.664;23.240;2023-03-19T07:55:00;99120.63;;;5.15;100.00
9460;BME280;4768;42.664;23.240;2023-03-19T07:57:27;116769.78;;;5.88;100.00
9460;BME280;4768;42.664;23.240;2023-03-19T07:59:54;128752.13;;;5.91;100.00
9460;BME280;4768;42.664;23.240;2023-03-19T08:02:21;142579.44;;;6.09;100.00
9460;BME280;4768;42.664;23.240;2023-03-19T08:04:47;159152.25;;;5.61;100.00
9460;BME280;4768;42.664;23.240;2023-03-19T08:07:14;158096.47;;;5.66;100.00
9460;BME280;4768;42.664;23.240;2023-03-19T08:09:42;156719.78;;;5.84;100.00
9460;BME280;4768;42.664;23.240;2023-03-19T08:12:10;163497.97;;;5.90;100.00
9460;BME280;4768;42.664;23.240;2023-03-19T08:14:37;168282.31;;;5.14;100.00
9460;BME280;4768;42.664;23.240;2023-03-19T08:17:04;159102.28;;;5.41;100.00
9460;BME280;4768;42.664;23.240;2023-03-19T08:19:31;168457.69;;;5.79;100.00
9460;BME280;4768;42.664;23.240;2023-03-19T08:21:58;168528.03;;;6.05;100.00
9460;BME280;4768;42.664;23.240;2023-03-19T08:24:25;168625.06;;;6.41;100.00
9460;BME280;4768;42.664;23.240;2023-03-19T08:26:53;168675.56;;;6.60;100.00
9460;BME280;4768;42.664;23.240;2023-03-19T08:29:20;168743.34;;;6.85;100.00
9460;BME280;4768;42.664;23.240;2023-03-19T08:31:47;168777.91;;;6.98;100.00
9460;BME280;4768;42.664;23.240;2023-03-19T08:34:14;168873.63;;;7.34;100.00
9460;BME280;4768;42.664;23.240;2023-03-19T08:36:41;168679.56;;;6.62;100.00
9460;BME280;4768;42.664;23.240;2023-03-19T08:39:08;168858.97;;;7.28;100.00
9460;BME280;4768;42.664;23.240;2023-03-19T08:41:34;168843.03;;;7.22;100.00
9460;BME280;4768;42.664;23.240;2023-03-19T08:44:03;169043.84;;;7.97;100.00
9460;BME280;4768;42.664;23.240;2023-03-19T08:46:30;168944.13;;;7.60;100.00
9460;BME280;4768;42.664;23.240;2023-03-19T08:48:58;169130.38;;;8.29;100.00
9460;BME280;4768;42.664;23.240;2023-03-19T08:51:25;169034.50;;;7.94;100.00
9460;BME280;4768;42.664;23.240;2023-03-19T08:53:52;168690.16;;;6.66;100.00
9460;BME280;4768;42.664;23.240;2023-03-19T08:56:19;168815.13;;;7.12;100.00
9460;BME280;4768;42.664;23.240;2023-03-19T08:58:46;168813.81;;;7.12;100.00
9460;BME280;4768;42.664;23.240;2023-03-19T09:01:15;169021.22;;;7.89;100.00
9460;BME280;4768;42.664;23.240;2023-03-19T09:03:42;169055.81;;;8.02;100.00
9460;BME280;4768;42.664;23.240;2023-03-19T09:06:11;168878.91;;;7.36;100.00
9460;BME280;4768;42.664;23.240;2023-03-19T09:08:39;168776.53;;;6.98;100.00
9460;BME280;4768;42.664;23.240;2023-03-19T09:11:06;168880.25;;;7.36;100.00
9460;BME280;4768;42.664;23.240;2023-03-19T09:13:33;168865.66;;;7.31;100.00
9460;BME280;4768;42.664;23.240;2023-03-19T09:16:00;168985.31;;;7.75;100.00
9460;BME280;4768;42.664;23.240;2023-03-19T09:18:28;168930.78;;;7.55;100.00
9460;BME280;4768;42.664;23.240;2023-03-19T09:20:55;168994.59;;;7.79;100.00
9460;BME280;4768;42.664;23.240;2023-03-19T09:23:22;168929.47;;;7.55;100.00
9460;BME280;4768;42.664;23.240;2023-03-19T09:25:49;168933.47;;;7.56;100.00
9460;BME280;4768;42.664;23.240;2023-03-19T09:28:16;169022.53;;;7.89;100.00
9460;BME280;4768;42.664;23.240;2023-03-19T09:30:44;169171.63;;;8.45;100.00
9460;BME280;4768;42.664;23.240;2023-03-19T09:33:11;169242.16;;;8.71;100.00
9460;BME280;4768;42.664;23.240;2023-03-19T09:35:39;169214.22;;;8.61;100.00
9460;BME280;4768;42.664;23.240;2023-03-19T09:38:06;169207.53;;;8.58;100.00
9460;BME280;4768;42.664;23.240;2023-03-19T09:40:35;169180.91;;;8.48;100.00
9460;BME280;4768;42.664;23.240;2023-03-19T09:43:15;169210.22;;;8.59;100.00
9460;BME280;4768;42.664;23.240;2023-03-19T09:45:50;169276.72;;;8.84;100.00
9460;BME280;4768;42.664;23.240;2023-03-19T09:48:19;169306.03;;;8.95;100.00
9460;BME280;4768;42.664;23.240;2023-03-19T09:50:55;169171.63;;;8.45;100.00
9460;BME280;4768;42.664;23.240;2023-03-19T09:53:29;169397.91;;;9.29;100.00
9460;BME280;4768;42.664;23.240;2023-03-19T09:56:04;169377.94;;;9.21;100.00
9460;BME280;4768;42.664;23.240;2023-03-19T09:58:35;169393.91;;;9.27;100.00
9460;BME280;4768;42.664;23.240;2023-03-19T10:01:02;169413.88;;;9.35;100.00
9460;BME280;4768;42.664;23.240;2023-03-19T10:03:40;169453.81;;;9.50;100.00
9460;BME280;4768;42.664;23.240;2023-03-19T10:06:24;169400.56;;;9.30;100.00
9460;BME280;4768;42.664;23.240;2023-03-19T10:09:01;169409.88;;;9.33;100.00
9460;BME280;4768;42.664;23.240;2023-03-19T10:11:44;169440.50;;;9.45;100.00
9460;BME280;4768;42.664;23.240;2023-03-19T10:14:33;169420.53;;;9.37;100.00
9460;BME280;4768;42.664;23.240;2023-03-19T10:17:06;169455.19;;;9.50;100.00
9460;BME280;4768;42.664;23.240;2023-03-19T10:19:40;169656.31;;;10.25;100.00
9460;BME280;4768;42.664;23.240;2023-03-19T10:22:15;169533.72;;;9.79;100.00
9460;BME280;4768;42.664;23.240;2023-03-19T10:24:45;169521.72;;;9.75;100.00
9460;BME280;4768;42.664;23.240;2023-03-19T10:27:15;169643.03;;;10.20;100.00
9460;BME280;4768;42.664;23.240;2023-03-19T10:29:42;169623.03;;;10.13;100.00
9460;BME280;4768;42.664;23.240;2023-03-19T10:32:16;169616.38;;;10.10;100.00
9460;BME280;4768;42.664;23.240;2023-03-19T10:34:45;169653.69;;;10.24;100.00
9460;BME280;4768;42.664;23.240;2023-03-19T10:37:16;169599.06;;;10.04;100.00
9460;BME280;4768;42.664;23.240;2023-03-19T10:39:46;169592.38;;;10.01;100.00
9460;BME280;4768;42.664;23.240;2023-03-19T10:42:30;169802.91;;;10.79;100.00
9460;BME280;4768;42.664;23.240;2023-03-19T10:45:03;169900.25;;;11.15;100.00
9460;BME280;4768;42.664;23.240;2023-03-19T10:47:37;169724.28;;;10.50;100.00
9460;BME280;4768;42.664;23.240;2023-03-19T10:50:05;169902.88;;;11.16;100.00
9460;BME280;4768;42.664;23.240;2023-03-19T10:52:34;169818.91;;;10.85;100.00
9460;BME280;4768;42.664;23.240;2023-03-19T10:55:06;169782.94;;;10.72;100.00
9460;BME280;4768;42.664;23.240;2023-03-19T10:57:40;169906.88;;;11.18;100.00
9460;BME280;4768;42.664;23.240;2023-03-19T11:00:15;169829.59;;;10.89;100.00
9460;BME280;4768;42.664;23.240;2023-03-19T11:02:46;169850.88;;;10.97;100.00
9460;BME280;4768;42.664;23.240;2023-03-19T11:05:24;169969.53;;;11.41;100.00
9460;BME280;4768;42.664;23.240;2023-03-19T11:07:56;170085.59;;;11.84;100.00
9460;BME280;4768;42.664;23.240;2023-03-19T11:10:26;169882.88;;;11.09;100.00
9460;BME280;4768;42.664;23.240;2023-03-19T11:12:56;169973.56;;;11.43;100.00
9460;BME280;4768;42.664;23.240;2023-03-19T11:15:27;170009.59;;;11.56;100.00
9460;BME280;4768;42.664;23.240;2023-03-19T11:17:56;170017.59;;;11.59;100.00
9460;BME280;4768;42.664;23.240;2023-03-19T11:20:28;169985.59;;;11.47;100.00
9460;BME280;4768;42.664;23.240;2023-03-19T11:22:58;170133.63;;;12.02;100.00
9460;BME280;4768;42.664;23.240;2023-03-19T11:25:29;170061.59;;;11.75;100.00
9460;BME280;4768;42.664;23.240;2023-03-19T11:27:58;170094.97;;;11.88;100.00
9460;BME280;4768;42.664;23.240;2023-03-19T11:30:33;170199.03;;;12.26;100.00
9460;BME280;4768;42.664;23.240;2023-03-19T11:33:24;170159.00;;;12.11;98.36
9460;BME280;4768;42.664;23.240;2023-03-19T11:36:06;170033.59;;;11.65;99.54
9460;BME280;4768;42.664;23.240;2023-03-19T11:38:39;170212.34;;;12.31;100.00
9460;BME280;4768;42.664;23.240;2023-03-19T11:41:15;170235.03;;;12.40;98.17
9460;BME280;4768;42.664;23.240;2023-03-19T11:43:57;170276.38;;;12.55;97.37
9460;BME280;4768;42.664;23.240;2023-03-19T11:46:32;170175.00;;;12.17;94.97
9460;BME280;4768;42.664;23.240;2023-03-19T11:49:10;170110.97;;;11.94;94.33
9460;BME280;4768;42.664;23.240;2023-03-19T11:51:45;170333.78;;;12.76;100.00
9460;BME280;4768;42.664;23.240;2023-03-19T11:54:21;170339.09;;;12.78;94.85
9460;BME280;4768;42.664;23.240;2023-03-19T11:56:54;170348.50;;;12.82;96.29
9460;BME280;4768;42.664;23.240;2023-03-19T11:59:44;170344.47;;;12.80;95.02
9460;BME280;4768;42.664;23.240;2023-03-19T12:05:31;170275.06;;;12.54;93.28
9460;BME280;4768;42.664;23.240;2023-03-19T12:08:08;170288.38;;;12.59;92.45
9460;BME280;4768;42.664;23.240;2023-03-19T12:10:57;170341.78;;;12.79;93.09
9460;BME280;4768;42.664;23.240;2023-03-19T12:13:36;170421.91;;;13.09;92.10
9460;BME280;4768;42.664;23.240;2023-03-19T12:16:14;170324.47;;;12.73;90.54
9460;BME280;4768;42.664;23.240;2023-03-19T12:18:54;170413.91;;;13.06;93.32
9460;BME280;4768;42.664;23.240;2023-03-19T12:21:30;170449.94;;;13.19;89.40
9460;BME280;4768;42.664;23.240;2023-03-19T12:24:08;170413.91;;;13.06;90.38
9460;BME280;4768;42.664;23.240;2023-03-19T12:26:48;170443.25;;;13.17;86.41
9460;BME280;4768;42.664;23.240;2023-03-19T12:29:22;170482.00;;;13.31;84.29
9460;BME280;4768;42.664;23.240;2023-03-19T12:32:15;170624.88;;;13.84;85.19
9460;BME280;4768;42.664;23.240;2023-03-19T12:34:50;170587.50;;;13.70;82.05
9460;BME280;4768;42.664;23.240;2023-03-19T12:37:23;170741.09;;;14.27;79.04
9460;BME280;4768;42.664;23.240;2023-03-19T12:40:04;170852.00;;;14.68;75.36
9460;BME280;4768;42.664;23.240;2023-03-19T12:42:36;170659.59;;;13.97;76.79
9460;BME280;4768;42.664;23.240;2023-03-19T12:45:10;170656.91;;;13.96;81.10
9460;BME280;4768;42.664;23.240;2023-03-19T12:47:42;170570.09;;;13.64;77.75
9460;BME280;4768;42.664;23.240;2023-03-19T12:50:13;170483.34;;;13.32;79.42
9460;BME280;4768;42.664;23.240;2023-03-19T12:52:43;170614.16;;;13.80;80.08
9460;BME280;4768;42.664;23.240;2023-03-19T12:55:15;170615.53;;;13.81;78.80
9460;BME280;4768;42.664;23.240;2023-03-19T12:57:48;170598.16;;;13.74;78.84
9460;BME280;4768;42.664;23.240;2023-03-19T13:00:21;170502.00;;;13.39;78.00
9460;BME280;4768;42.664;23.240;2023-03-19T13:02:55;170587.50;;;13.70;78.96
9460;BME280;4768;42.664;23.240;2023-03-19T13:05:29;170624.88;;;13.84;76.85
9460;BME280;4768;42.664;23.240;2023-03-19T13:08:02;170582.13;;;13.68;77.02
9460;BME280;4768;42.664;23.240;2023-03-19T13:10:32;170599.50;;;13.75;75.80
9460;BME280;4768;42.664;23.240;2023-03-19T13:13:05;170618.16;;;13.82;79.47
9460;BME280;4768;42.664;23.240;2023-03-19T13:15:42;170753.13;;;14.32;77.73